EGLC/LCY METAR and TAF weather

Enter ICAO airport designator
Station Type Date Time Source
EGLC METAR 2019/02/20 07:20 UTC NOAA

EGLC 200720Z AUTO VRB07G19KT 9999 NCD 08/06 Q1019


Station Type Date Time Source
EGLC Decoded METAR 2019/02/20 07:20 UTC NOAA

London City Airport, United Kingdom (EGLC) 51-30N 000-30W
Feb 20, 2019 - 02:20 AM EST / 2019.02.20 0720 UTC
Wind: Variable at 8 MPH (7 KT) gusting to 22 MPH (19 KT):0
Visibility: greater than 7 mile(s):0
Temperature: 46 F (8 C)
Dew Point: 42 F (6 C)
Relative Humidity: 87%
Pressure (altimeter): 30.09 in. Hg (1019 hPa)
ob: EGLC 200720Z AUTO VRB07G19KT 9999 NCD 08/06 Q1019
cycle: 7

Station Type Date Time Source
EGLC TAF 2018/10/15 21:30 UTC NOAA

TAF EGLC 152119Z 1521/1621 CNL


Example: see airport list